sensor_id;sensor_type;location;lat;lon;timestamp;temperature;humidity
29687;DHT22;16599;47.078;15.536;2024-01-25T00:00:18;2.90;99.90
29687;DHT22;16599;47.078;15.536;2024-01-25T00:02:45;3.10;99.90
29687;DHT22;16599;47.078;15.536;2024-01-25T00:05:12;3.00;99.90
29687;DHT22;16599;47.078;15.536;2024-01-25T00:07:45;2.90;99.90
29687;DHT22;16599;47.078;15.536;2024-01-25T00:10:12;2.90;99.90
29687;DHT22;16599;47.078;15.536;2024-01-25T00:12:39;3.00;99.90
29687;DHT22;16599;47.078;15.536;2024-01-25T00:15:06;3.20;99.90
29687;DHT22;16599;47.078;15.536;2024-01-25T00:17:33;3.60;99.90
29687;DHT22;16599;47.078;15.536;2024-01-25T00:20:00;3.70;99.90
29687;DHT22;16599;47.078;15.536;2024-01-25T00:22:27;3.50;99.90
29687;DHT22;16599;47.078;15.536;2024-01-25T00:24:53;3.50;99.90
29687;DHT22;16599;47.078;15.536;2024-01-25T00:27:20;3.60;99.90
29687;DHT22;16599;47.078;15.536;2024-01-25T00:29:47;3.60;99.90
29687;DHT22;16599;47.078;15.536;2024-01-25T00:32:14;3.90;99.90
29687;DHT22;16599;47.078;15.536;2024-01-25T00:34:41;3.60;99.90
29687;DHT22;16599;47.078;15.536;2024-01-25T00:37:08;3.60;99.90
29687;DHT22;16599;47.078;15.536;2024-01-25T00:39:35;3.50;99.90
29687;DHT22;16599;47.078;15.536;2024-01-25T00:42:05;3.50;99.90
29687;DHT22;16599;47.078;15.536;2024-01-25T00:44:32;3.40;99.90
29687;DHT22;16599;47.078;15.536;2024-01-25T00:46:59;3.30;99.90
29687;DHT22;16599;47.078;15.536;2024-01-25T00:49:26;4.10;99.90
29687;DHT22;16599;47.078;15.536;2024-01-25T00:51:55;3.90;99.90
29687;DHT22;16599;47.078;15.536;2024-01-25T00:54:25;3.60;99.90
29687;DHT22;16599;47.078;15.536;2024-01-25T00:56:52;3.50;99.90
29687;DHT22;16599;47.078;15.536;2024-01-25T00:59:19;4.00;99.90
29687;DHT22;16599;47.078;15.536;2024-01-25T01:01:47;3.70;99.90
29687;DHT22;16599;47.078;15.536;2024-01-25T01:04:15;3.70;99.90
29687;DHT22;16599;47.078;15.536;2024-01-25T01:06:42;3.90;99.90
29687;DHT22;16599;47.078;15.536;2024-01-25T01:09:09;3.90;99.90
29687;DHT22;16599;47.078;15.536;2024-01-25T01:11:36;3.60;99.90
29687;DHT22;16599;47.078;15.536;2024-01-25T01:14:03;3.40;99.90
29687;DHT22;16599;47.078;15.536;2024-01-25T01:16:30;3.40;99.90
29687;DHT22;16599;47.078;15.536;2024-01-25T01:18:59;3.40;99.90
29687;DHT22;16599;47.078;15.536;2024-01-25T01:21:33;3.20;99.90
29687;DHT22;16599;47.078;15.536;2024-01-25T01:24:00;3.20;99.90
29687;DHT22;16599;47.078;15.536;2024-01-25T01:26:26;3.10;99.90
29687;DHT22;16599;47.078;15.536;2024-01-25T01:28:53;3.20;99.90
29687;DHT22;16599;47.078;15.536;2024-01-25T01:31:20;3.70;99.90
29687;DHT22;16599;47.078;15.536;2024-01-25T01:33:47;3.60;99.90
29687;DHT22;16599;47.078;15.536;2024-01-25T01:36:14;3.80;99.90
29687;DHT22;16599;47.078;15.536;2024-01-25T01:38:41;3.80;99.90
29687;DHT22;16599;47.078;15.536;2024-01-25T01:41:09;3.60;99.90
29687;DHT22;16599;47.078;15.536;2024-01-25T01:43:35;3.40;99.90
29687;DHT22;16599;47.078;15.536;2024-01-25T01:46:04;3.50;99.90
29687;DHT22;16599;47.078;15.536;2024-01-25T01:48:33;3.50;99.90
29687;DHT22;16599;47.078;15.536;2024-01-25T01:51:00;3.70;99.90
29687;DHT22;16599;47.078;15.536;2024-01-25T01:53:27;3.60;99.90
29687;DHT22;16599;47.078;15.536;2024-01-25T01:55:53;3.40;99.90
29687;DHT22;16599;47.078;15.536;2024-01-25T01:58:20;3.40;99.90
29687;DHT22;16599;47.078;15.536;2024-01-25T02:00:48;3.30;99.90
29687;DHT22;16599;47.078;15.536;2024-01-25T02:03:16;3.00;99.90
29687;DHT22;16599;47.078;15.536;2024-01-25T02:05:43;3.00;99.90
29687;DHT22;16599;47.078;15.536;2024-01-25T02:08:10;3.20;99.90
29687;DHT22;16599;47.078;15.536;2024-01-25T02:10:37;3.10;99.90
29687;DHT22;16599;47.078;15.536;2024-01-25T02:13:03;3.50;99.90
29687;DHT22;16599;47.078;15.536;2024-01-25T02:15:30;4.20;99.90
29687;DHT22;16599;47.078;15.536;2024-01-25T02:17:57;4.30;99.20
29687;DHT22;16599;47.078;15.536;2024-01-25T02:20:24;4.00;99.80
29687;DHT22;16599;47.078;15.536;2024-01-25T02:22:51;3.90;99.90
29687;DHT22;16599;47.078;15.536;2024-01-25T02:25:18;3.60;99.90
29687;DHT22;16599;47.078;15.536;2024-01-25T02:27:45;3.40;99.90
29687;DHT22;16599;47.078;15.536;2024-01-25T02:30:12;3.30;99.90
29687;DHT22;16599;47.078;15.536;2024-01-25T02:32:39;3.80;99.90
29687;DHT22;16599;47.078;15.536;2024-01-25T02:35:06;3.60;99.90
29687;DHT22;16599;47.078;15.536;2024-01-25T02:37:33;3.60;99.90
29687;DHT22;16599;47.078;15.536;2024-01-25T02:40:00;3.50;99.90
29687;DHT22;16599;47.078;15.536;2024-01-25T02:42:26;3.50;99.90
29687;DHT22;16599;47.078;15.536;2024-01-25T02:44:53;3.80;99.90
29687;DHT22;16599;47.078;15.536;2024-01-25T02:47:20;3.90;99.80
29687;DHT22;16599;47.078;15.536;2024-01-25T02:49:47;4.30;98.90
29687;DHT22;16599;47.078;15.536;2024-01-25T02:52:14;4.10;99.40
29687;DHT22;16599;47.078;15.536;2024-01-25T02:54:41;4.10;99.60
29687;DHT22;16599;47.078;15.536;2024-01-25T02:57:08;3.90;99.90
29687;DHT22;16599;47.078;15.536;2024-01-25T02:59:35;4.20;99.60
29687;DHT22;16599;47.078;15.536;2024-01-25T03:02:01;4.20;99.10
29687;DHT22;16599;47.078;15.536;2024-01-25T03:04:28;4.10;99.30
29687;DHT22;16599;47.078;15.536;2024-01-25T03:06:55;4.10;99.80
29687;DHT22;16599;47.078;15.536;2024-01-25T03:09:22;4.10;99.30
29687;DHT22;16599;47.078;15.536;2024-01-25T03:11:50;3.90;99.30
29687;DHT22;16599;47.078;15.536;2024-01-25T03:14:17;3.70;99.80
29687;DHT22;16599;47.078;15.536;2024-01-25T03:16:44;3.50;99.90
29687;DHT22;16599;47.078;15.536;2024-01-25T03:19:11;3.50;99.90
29687;DHT22;16599;47.078;15.536;2024-01-25T03:21:38;3.50;99.90
29687;DHT22;16599;47.078;15.536;2024-01-25T03:24:05;3.40;99.90
29687;DHT22;16599;47.078;15.536;2024-01-25T03:26:32;3.70;99.90
29687;DHT22;16599;47.078;15.536;2024-01-25T03:28:58;3.60;99.70
29687;DHT22;16599;47.078;15.536;2024-01-25T03:31:25;3.70;99.90
29687;DHT22;16599;47.078;15.536;2024-01-25T03:33:52;3.60;99.90
29687;DHT22;16599;47.078;15.536;2024-01-25T03:36:19;3.60;99.90
29687;DHT22;16599;47.078;15.536;2024-01-25T03:38:46;3.40;99.90
29687;DHT22;16599;47.078;15.536;2024-01-25T03:41:12;3.30;99.90
29687;DHT22;16599;47.078;15.536;2024-01-25T03:43:39;3.60;99.80
29687;DHT22;16599;47.078;15.536;2024-01-25T03:46:11;3.40;99.60
29687;DHT22;16599;47.078;15.536;2024-01-25T03:48:38;2.60;99.90
29687;DHT22;16599;47.078;15.536;2024-01-25T03:51:05;3.00;99.90
29687;DHT22;16599;47.078;15.536;2024-01-25T03:53:32;3.00;99.90
29687;DHT22;16599;47.078;15.536;2024-01-25T03:55:59;3.00;99.90
29687;DHT22;16599;47.078;15.536;2024-01-25T03:58:26;2.90;99.90
29687;DHT22;16599;47.078;15.536;2024-01-25T04:00:53;2.70;99.90
29687;DHT22;16599;47.078;15.536;2024-01-25T04:03:20;2.70;99.90
29687;DHT22;16599;47.078;15.536;2024-01-25T04:05:47;2.70;99.90
29687;DHT22;16599;47.078;15.536;2024-01-25T04:08:14;2.20;99.90
29687;DHT22;16599;47.078;15.536;2024-01-25T04:10:41;2.00;99.90
29687;DHT22;16599;47.078;15.536;2024-01-25T04:13:08;1.70;99.90
29687;DHT22;16599;47.078;15.536;2024-01-25T04:15:35;1.80;99.90
29687;DHT22;16599;47.078;15.536;2024-01-25T04:18:01;2.40;99.90
29687;DHT22;16599;47.078;15.536;2024-01-25T04:20:29;1.90;99.90
29687;DHT22;16599;47.078;15.536;2024-01-25T04:22:56;2.00;99.90
29687;DHT22;16599;47.078;15.536;2024-01-25T04:25:23;2.50;99.90
29687;DHT22;16599;47.078;15.536;2024-01-25T04:27:49;2.30;99.90
29687;DHT22;16599;47.078;15.536;2024-01-25T04:30:16;2.50;99.90
29687;DHT22;16599;47.078;15.536;2024-01-25T04:32:43;2.50;99.90
29687;DHT22;16599;47.078;15.536;2024-01-25T04:35:10;2.30;99.90
29687;DHT22;16599;47.078;15.536;2024-01-25T04:37:37;2.40;99.90
29687;DHT22;16599;47.078;15.536;2024-01-25T04:40:04;2.50;99.90
29687;DHT22;16599;47.078;15.536;2024-01-25T04:42:31;2.40;99.90
29687;DHT22;16599;47.078;15.536;2024-01-25T04:44:58;2.10;99.90
29687;DHT22;16599;47.078;15.536;2024-01-25T04:47:25;2.00;99.90
29687;DHT22;16599;47.078;15.536;2024-01-25T04:49:52;1.90;99.90
29687;DHT22;16599;47.078;15.536;2024-01-25T04:52:19;1.80;99.90
29687;DHT22;16599;47.078;15.536;2024-01-25T04:54:46;1.60;99.90
29687;DHT22;16599;47.078;15.536;2024-01-25T04:57:16;1.50;99.90
29687;DHT22;16599;47.078;15.536;2024-01-25T04:59:47;1.30;99.90
29687;DHT22;16599;47.078;15.536;2024-01-25T05:02:14;1.30;99.90
29687;DHT22;16599;47.078;15.536;2024-01-25T05:04:41;1.40;99.90
29687;DHT22;16599;47.078;15.536;2024-01-25T05:07:11;1.30;99.90
29687;DHT22;16599;47.078;15.536;2024-01-25T05:09:38;1.30;99.90
29687;DHT22;16599;47.078;15.536;2024-01-25T05:12:05;1.30;99.90
29687;DHT22;16599;47.078;15.536;2024-01-25T05:14:32;1.00;99.90
29687;DHT22;16599;47.078;15.536;2024-01-25T05:16:59;1.20;99.90
29687;DHT22;16599;47.078;15.536;2024-01-25T05:19:25;1.10;99.90
29687;DHT22;16599;47.078;15.536;2024-01-25T05:21:52;1.00;99.90
29687;DHT22;16599;47.078;15.536;2024-01-25T05:24:19;1.10;99.90
29687;DHT22;16599;47.078;15.536;2024-01-25T05:26:46;1.20;99.90
29687;DHT22;16599;47.078;15.536;2024-01-25T05:29:12;0.90;99.90
29687;DHT22;16599;47.078;15.536;2024-01-25T05:31:39;0.90;99.90
29687;DHT22;16599;47.078;15.536;2024-01-25T05:34:06;1.00;99.90
29687;DHT22;16599;47.078;15.536;2024-01-25T05:36:33;1.00;99.90
29687;DHT22;16599;47.078;15.536;2024-01-25T05:39:00;0.80;99.90
29687;DHT22;16599;47.078;15.536;2024-01-25T05:41:27;0.90;99.90
29687;DHT22;16599;47.078;15.536;2024-01-25T05:43:54;1.00;99.90
29687;DHT22;16599;47.078;15.536;2024-01-25T05:46:21;1.20;99.90
29687;DHT22;16599;47.078;15.536;2024-01-25T05:48:48;1.20;99.90
29687;DHT22;16599;47.078;15.536;2024-01-25T05:51:15;1.30;99.90
29687;DHT22;16599;47.078;15.536;2024-01-25T05:53:42;1.10;99.90
29687;DHT22;16599;47.078;15.536;2024-01-25T05:56:09;1.10;99.90
29687;DHT22;16599;47.078;15.536;2024-01-25T05:58:36;0.90;99.90
29687;DHT22;16599;47.078;15.536;2024-01-25T06:01:04;0.70;99.90
29687;DHT22;16599;47.078;15.536;2024-01-25T06:03:31;0.70;99.90
29687;DHT22;16599;47.078;15.536;2024-01-25T06:05:58;0.80;99.90
29687;DHT22;16599;47.078;15.536;2024-01-25T06:08:25;0.90;99.90
29687;DHT22;16599;47.078;15.536;2024-01-25T06:10:52;0.50;99.90
29687;DHT22;16599;47.078;15.536;2024-01-25T06:13:19;0.50;99.90
29687;DHT22;16599;47.078;15.536;2024-01-25T06:15:46;0.60;99.90
29687;DHT22;16599;47.078;15.536;2024-01-25T06:18:13;0.80;99.90
29687;DHT22;16599;47.078;15.536;2024-01-25T06:20:39;0.70;99.90
29687;DHT22;16599;47.078;15.536;2024-01-25T06:23:06;1.00;99.90
29687;DHT22;16599;47.078;15.536;2024-01-25T06:25:33;0.90;99.90
29687;DHT22;16599;47.078;15.536;2024-01-25T06:28:01;1.10;99.90
29687;DHT22;16599;47.078;15.536;2024-01-25T06:30:30;1.20;99.90
29687;DHT22;16599;47.078;15.536;2024-01-25T06:32:57;0.80;99.90
29687;DHT22;16599;47.078;15.536;2024-01-25T06:35:24;0.90;99.90
29687;DHT22;16599;47.078;15.536;2024-01-25T06:37:51;0.70;99.90
29687;DHT22;16599;47.078;15.536;2024-01-25T06:40:18;0.70;99.90
29687;DHT22;16599;47.078;15.536;2024-01-25T06:42:44;1.10;99.90
29687;DHT22;16599;47.078;15.536;2024-01-25T06:45:11;1.40;99.90
29687;DHT22;16599;47.078;15.536;2024-01-25T06:47:38;0.80;99.90
29687;DHT22;16599;47.078;15.536;2024-01-25T06:50:05;0.70;99.90
29687;DHT22;16599;47.078;15.536;2024-01-25T06:52:33;1.00;99.90
29687;DHT22;16599;47.078;15.536;2024-01-25T06:55:00;1.10;99.90
29687;DHT22;16599;47.078;15.536;2024-01-25T06:57:27;0.70;99.90
29687;DHT22;16599;47.078;15.536;2024-01-25T06:59:53;0.80;99.90
29687;DHT22;16599;47.078;15.536;2024-01-25T07:02:20;0.70;99.90
29687;DHT22;16599;47.078;15.536;2024-01-25T07:04:48;0.90;99.90
29687;DHT22;16599;47.078;15.536;2024-01-25T07:07:15;1.40;99.90
29687;DHT22;16599;47.078;15.536;2024-01-25T07:09:42;1.30;99.90
29687;DHT22;16599;47.078;15.536;2024-01-25T07:12:08;1.10;99.90
29687;DHT22;16599;47.078;15.536;2024-01-25T07:14:35;1.00;99.90
29687;DHT22;16599;47.078;15.536;2024-01-25T07:17:02;1.10;99.90
29687;DHT22;16599;47.078;15.536;2024-01-25T07:19:30;1.30;99.90
29687;DHT22;16599;47.078;15.536;2024-01-25T07:21:57;1.90;99.90
29687;DHT22;16599;47.078;15.536;2024-01-25T07:24:24;2.20;99.90
29687;DHT22;16599;47.078;15.536;2024-01-25T07:26:52;2.70;99.90
29687;DHT22;16599;47.078;15.536;2024-01-25T07:29:22;3.70;99.90
29687;DHT22;16599;47.078;15.536;2024-01-25T07:31:48;4.20;99.90
29687;DHT22;16599;47.078;15.536;2024-01-25T07:34:15;4.50;99.90
29687;DHT22;16599;47.078;15.536;2024-01-25T07:36:42;4.50;99.90
29687;DHT22;16599;47.078;15.536;2024-01-25T07:39:09;4.70;99.90
29687;DHT22;16599;47.078;15.536;2024-01-25T07:41:38;4.60;99.90
29687;DHT22;16599;47.078;15.536;2024-01-25T07:44:05;4.60;99.90
29687;DHT22;16599;47.078;15.536;2024-01-25T07:46:37;4.70;99.90
29687;DHT22;16599;47.078;15.536;2024-01-25T07:49:04;4.70;99.90
29687;DHT22;16599;47.078;15.536;2024-01-25T07:51:31;4.70;99.90
29687;DHT22;16599;47.078;15.536;2024-01-25T07:53:58;4.70;99.90
29687;DHT22;16599;47.078;15.536;2024-01-25T07:56:25;4.80;99.90
29687;DHT22;16599;47.078;15.536;2024-01-25T07:58:52;5.10;99.90
29687;DHT22;16599;47.078;15.536;2024-01-25T08:01:19;5.50;99.90
29687;DHT22;16599;47.078;15.536;2024-01-25T08:03:46;5.30;99.90
29687;DHT22;16599;47.078;15.536;2024-01-25T08:06:13;6.10;99.90
29687;DHT22;16599;47.078;15.536;2024-01-25T08:08:40;6.20;99.60
29687;DHT22;16599;47.078;15.536;2024-01-25T08:11:08;6.10;99.70
29687;DHT22;16599;47.078;15.536;2024-01-25T08:13:35;6.10;99.40
29687;DHT22;16599;47.078;15.536;2024-01-25T08:16:02;6.60;98.90
29687;DHT22;16599;47.078;15.536;2024-01-25T08:18:29;7.00;97.20
29687;DHT22;16599;47.078;15.536;2024-01-25T08:20:57;7.10;97.10
29687;DHT22;16599;47.078;15.536;2024-01-25T08:23:25;7.00;96.80
29687;DHT22;16599;47.078;15.536;2024-01-25T08:25:51;6.90;97.80
29687;DHT22;16599;47.078;15.536;2024-01-25T08:28:18;7.10;96.80
29687;DHT22;16599;47.078;15.536;2024-01-25T08:30:46;7.20;96.20
29687;DHT22;16599;47.078;15.536;2024-01-25T08:33:13;7.40;96.50
29687;DHT22;16599;47.078;15.536;2024-01-25T08:35:40;7.40;96.30
29687;DHT22;16599;47.078;15.536;2024-01-25T08:38:07;7.50;96.10
29687;DHT22;16599;47.078;15.536;2024-01-25T08:40:34;7.60;94.80
29687;DHT22;16599;47.078;15.536;2024-01-25T08:43:01;7.50;95.30
29687;DHT22;16599;47.078;15.536;2024-01-25T08:45:33;7.90;94.00
29687;DHT22;16599;47.078;15.536;2024-01-25T08:48:06;7.70;93.90
29687;DHT22;16599;47.078;15.536;2024-01-25T08:50:36;7.90;93.20
29687;DHT22;16599;47.078;15.536;2024-01-25T08:53:03;8.10;92.50
29687;DHT22;16599;47.078;15.536;2024-01-25T08:55:32;8.10;93.20
29687;DHT22;16599;47.078;15.536;2024-01-25T08:57:59;8.20;93.20
29687;DHT22;16599;47.078;15.536;2024-01-25T09:00:26;8.10;92.10
29687;DHT22;16599;47.078;15.536;2024-01-25T09:02:53;8.30;92.30
29687;DHT22;16599;47.078;15.536;2024-01-25T09:05:20;8.30;92.00
29687;DHT22;16599;47.078;15.536;2024-01-25T09:07:47;8.50;90.60
29687;DHT22;16599;47.078;15.536;2024-01-25T09:10:14;8.30;91.40
29687;DHT22;16599;47.078;15.536;2024-01-25T09:12:41;8.40;91.80
29687;DHT22;16599;47.078;15.536;2024-01-25T09:15:08;8.40;91.10
29687;DHT22;16599;47.078;15.536;2024-01-25T09:17:36;8.70;91.50
29687;DHT22;16599;47.078;15.536;2024-01-25T09:20:03;8.80;91.20
29687;DHT22;16599;47.078;15.536;2024-01-25T09:22:31;9.00;90.80
29687;DHT22;16599;47.078;15.536;2024-01-25T09:24:58;8.80;90.60
29687;DHT22;16599;47.078;15.536;2024-01-25T09:27:25;8.70;90.00
29687;DHT22;16599;47.078;15.536;2024-01-25T09:29:52;8.80;89.20
29687;DHT22;16599;47.078;15.536;2024-01-25T09:32:20;9.00;87.50
29687;DHT22;16599;47.078;15.536;2024-01-25T09:34:47;9.10;87.10
29687;DHT22;16599;47.078;15.536;2024-01-25T09:37:14;9.20;86.30
29687;DHT22;16599;47.078;15.536;2024-01-25T09:39:42;9.20;84.90
29687;DHT22;16599;47.078;15.536;2024-01-25T09:42:09;9.30;86.00
29687;DHT22;16599;47.078;15.536;2024-01-25T09:44:36;9.30;83.20
29687;DHT22;16599;47.078;15.536;2024-01-25T09:47:04;9.30;81.70
29687;DHT22;16599;47.078;15.536;2024-01-25T09:49:32;9.30;82.60
29687;DHT22;16599;47.078;15.536;2024-01-25T09:52:00;9.40;83.30
29687;DHT22;16599;47.078;15.536;2024-01-25T09:54:32;9.70;81.30
29687;DHT22;16599;47.078;15.536;2024-01-25T09:57:01;9.60;80.00
29687;DHT22;16599;47.078;15.536;2024-01-25T09:59:28;9.60;77.50
29687;DHT22;16599;47.078;15.536;2024-01-25T10:01:55;9.80;76.80
29687;DHT22;16599;47.078;15.536;2024-01-25T10:04:23;9.90;77.00
29687;DHT22;16599;47.078;15.536;2024-01-25T10:06:51;10.00;76.80
29687;DHT22;16599;47.078;15.536;2024-01-25T10:09:21;10.00;75.70
29687;DHT22;16599;47.078;15.536;2024-01-25T10:11:49;10.00;75.60
29687;DHT22;16599;47.078;15.536;2024-01-25T10:14:29;10.10;70.80
29687;DHT22;16599;47.078;15.536;2024-01-25T10:16:57;10.20;69.70
29687;DHT22;16599;47.078;15.536;2024-01-25T10:19:25;10.40;75.50
29687;DHT22;16599;47.078;15.536;2024-01-25T10:21:52;10.50;72.30
29687;DHT22;16599;47.078;15.536;2024-01-25T10:24:19;10.10;71.40
29687;DHT22;16599;47.078;15.536;2024-01-25T10:26:48;10.20;71.20
29687;DHT22;16599;47.078;15.536;2024-01-25T10:29:15;10.50;71.30
29687;DHT22;16599;47.078;15.536;2024-01-25T10:31:42;10.40;68.60
29687;DHT22;16599;47.078;15.536;2024-01-25T10:34:11;10.50;68.70
29687;DHT22;16599;47.078;15.536;2024-01-25T10:36:39;10.70;67.90
29687;DHT22;16599;47.078;15.536;2024-01-25T10:39:07;10.80;68.80
29687;DHT22;16599;47.078;15.536;2024-01-25T10:41:34;10.90;67.00
29687;DHT22;16599;47.078;15.536;2024-01-25T10:44:01;10.60;65.00
29687;DHT22;16599;47.078;15.536;2024-01-25T10:46:29;10.90;65.00
29687;DHT22;16599;47.078;15.536;2024-01-25T10:48:57;11.00;65.70
29687;DHT22;16599;47.078;15.536;2024-01-25T10:51:25;10.90;66.50
29687;DHT22;16599;47.078;15.536;2024-01-25T10:53:52;10.90;67.10
29687;DHT22;16599;47.078;15.536;2024-01-25T10:56:19;11.00;62.10
29687;DHT22;16599;47.078;15.536;2024-01-25T10:58:46;10.80;62.60
29687;DHT22;16599;47.078;15.536;2024-01-25T11:01:13;10.60;60.40
29687;DHT22;16599;47.078;15.536;2024-01-25T11:03:42;10.70;65.80
29687;DHT22;16599;47.078;15.536;2024-01-25T11:06:10;11.00;63.20
29687;DHT22;16599;47.078;15.536;2024-01-25T11:08:38;11.00;63.70
29687;DHT22;16599;47.078;15.536;2024-01-25T11:11:09;10.80;62.10
29687;DHT22;16599;47.078;15.536;2024-01-25T11:13:40;10.90;60.60
29687;DHT22;16599;47.078;15.536;2024-01-25T11:22:05;11.20;62.20
29687;DHT22;16599;47.078;15.536;2024-01-25T11:24:37;11.20;58.50
29687;DHT22;16599;47.078;15.536;2024-01-25T11:27:04;11.10;60.90
29687;DHT22;16599;47.078;15.536;2024-01-25T11:29:31;11.10;62.90
29687;DHT22;16599;47.078;15.536;2024-01-25T11:31:58;11.10;58.20
29687;DHT22;16599;47.078;15.536;2024-01-25T11:34:25;11.10;62.30
29687;DHT22;16599;47.078;15.536;2024-01-25T11:36:52;11.60;59.10
29687;DHT22;16599;47.078;15.536;2024-01-25T11:39:19;11.30;60.00
29687;DHT22;16599;47.078;15.536;2024-01-25T11:41:47;11.50;60.30
29687;DHT22;16599;47.078;15.536;2024-01-25T11:44:15;11.30;60.10
29687;DHT22;16599;47.078;15.536;2024-01-25T11:46:42;11.30;60.60
29687;DHT22;16599;47.078;15.536;2024-01-25T11:49:09;11.50;58.60
29687;DHT22;16599;47.078;15.536;2024-01-25T11:51:36;11.50;57.70
29687;DHT22;16599;47.078;15.536;2024-01-25T11:54:03;11.30;59.20
29687;DHT22;16599;47.078;15.536;2024-01-25T11:56:35;11.30;58.60
29687;DHT22;16599;47.078;15.536;2024-01-25T11:59:02;11.10;58.70
29687;DHT22;16599;47.078;15.536;2024-01-25T12:01:29;11.10;58.10
29687;DHT22;16599;47.078;15.536;2024-01-25T12:03:57;11.10;58.20
29687;DHT22;16599;47.078;15.536;2024-01-25T12:06:23;11.10;58.20
29687;DHT22;16599;47.078;15.536;2024-01-25T12:08:50;11.10;57.70
29687;DHT22;16599;47.078;15.536;2024-01-25T12:11:18;11.00;55.80
29687;DHT22;16599;47.078;15.536;2024-01-25T12:13:48;11.70;55.40
29687;DHT22;16599;47.078;15.536;2024-01-25T12:16:15;11.50;55.20
29687;DHT22;16599;47.078;15.536;2024-01-25T12:18:43;11.20;55.90
29687;DHT22;16599;47.078;15.536;2024-01-25T12:21:10;11.20;56.50
29687;DHT22;16599;47.078;15.536;2024-01-25T12:23:38;11.70;59.20
29687;DHT22;16599;47.078;15.536;2024-01-25T12:26:05;11.80;59.00
29687;DHT22;16599;47.078;15.536;2024-01-25T12:28:34;11.70;58.90
29687;DHT22;16599;47.078;15.536;2024-01-25T12:31:20;11.80;58.70
29687;DHT22;16599;47.078;15.536;2024-01-25T12:33:47;11.60;59.30
29687;DHT22;16599;47.078;15.536;2024-01-25T12:36:14;11.60;58.80
29687;DHT22;16599;47.078;15.536;2024-01-25T12:38:41;11.40;59.60
29687;DHT22;16599;47.078;15.536;2024-01-25T12:44:41;11.60;61.00
29687;DHT22;16599;47.078;15.536;2024-01-25T12:47:08;11.80;59.50
29687;DHT22;16599;47.078;15.536;2024-01-25T12:49:35;11.90;59.10
29687;DHT22;16599;47.078;15.536;2024-01-25T12:52:06;12.00;58.90
29687;DHT22;16599;47.078;15.536;2024-01-25T12:54:33;11.80;59.90
29687;DHT22;16599;47.078;15.536;2024-01-25T13:04:08;11.40;59.20
29687;DHT22;16599;47.078;15.536;2024-01-25T13:06:36;11.70;59.40
29687;DHT22;16599;47.078;15.536;2024-01-25T13:09:03;11.60;57.40
29687;DHT22;16599;47.078;15.536;2024-01-25T13:15:06;11.80;59.10
29687;DHT22;16599;47.078;15.536;2024-01-25T13:21:02;11.50;59.00
29687;DHT22;16599;47.078;15.536;2024-01-25T13:23:50;11.40;59.50
29687;DHT22;16599;47.078;15.536;2024-01-25T13:26:17;11.20;58.90
29687;DHT22;16599;47.078;15.536;2024-01-25T13:28:43;11.20;59.40
29687;DHT22;16599;47.078;15.536;2024-01-25T13:31:10;11.20;58.90
29687;DHT22;16599;47.078;15.536;2024-01-25T13:33:37;11.40;59.40
29687;DHT22;16599;47.078;15.536;2024-01-25T13:36:04;11.60;59.80
29687;DHT22;16599;47.078;15.536;2024-01-25T13:38:35;11.30;56.10
29687;DHT22;16599;47.078;15.536;2024-01-25T13:41:01;11.30;57.20
29687;DHT22;16599;47.078;15.536;2024-01-25T13:43:28;11.40;57.50
29687;DHT22;16599;47.078;15.536;2024-01-25T13:45:55;11.20;56.30
29687;DHT22;16599;47.078;15.536;2024-01-25T13:48:22;11.10;56.90
29687;DHT22;16599;47.078;15.536;2024-01-25T13:50:49;11.00;56.80
29687;DHT22;16599;47.078;15.536;2024-01-25T13:53:16;10.80;59.40
29687;DHT22;16599;47.078;15.536;2024-01-25T13:55:44;11.00;58.00
29687;DHT22;16599;47.078;15.536;2024-01-25T13:58:10;10.90;58.50
29687;DHT22;16599;47.078;15.536;2024-01-25T14:00:37;10.90;58.10
29687;DHT22;16599;47.078;15.536;2024-01-25T14:03:04;10.80;56.60
29687;DHT22;16599;47.078;15.536;2024-01-25T14:05:31;11.00;59.00
29687;DHT22;16599;47.078;15.536;2024-01-25T14:07:58;11.10;58.00
29687;DHT22;16599;47.078;15.536;2024-01-25T14:10:26;10.90;58.50
29687;DHT22;16599;47.078;15.536;2024-01-25T14:12:54;10.80;58.00
29687;DHT22;16599;47.078;15.536;2024-01-25T14:15:22;10.60;59.40
29687;DHT22;16599;47.078;15.536;2024-01-25T14:17:49;10.70;60.10
29687;DHT22;16599;47.078;15.536;2024-01-25T14:20:17;10.50;59.80
29687;DHT22;16599;47.078;15.536;2024-01-25T14:22:44;10.40;59.50
29687;DHT22;16599;47.078;15.536;2024-01-25T14:25:11;10.30;61.10
29687;DHT22;16599;47.078;15.536;2024-01-25T14:27:38;10.20;61.90
29687;DHT22;16599;47.078;15.536;2024-01-25T14:30:05;10.40;60.40
29687;DHT22;16599;47.078;15.536;2024-01-25T14:32:33;10.60;56.20
29687;DHT22;16599;47.078;15.536;2024-01-25T14:35:00;10.50;58.80
29687;DHT22;16599;47.078;15.536;2024-01-25T14:37:27;10.20;57.30
29687;DHT22;16599;47.078;15.536;2024-01-25T14:39:54;10.10;59.00
29687;DHT22;16599;47.078;15.536;2024-01-25T14:42:41;9.90;59.40
29687;DHT22;16599;47.078;15.536;2024-01-25T14:45:08;9.90;60.00
29687;DHT22;16599;47.078;15.536;2024-01-25T14:47:34;9.80;61.10
29687;DHT22;16599;47.078;15.536;2024-01-25T14:50:01;9.50;62.80
29687;DHT22;16599;47.078;15.536;2024-01-25T14:52:28;9.50;64.40
29687;DHT22;16599;47.078;15.536;2024-01-25T14:54:55;9.40;65.00
29687;DHT22;16599;47.078;15.536;2024-01-25T14:57:22;9.10;65.90
29687;DHT22;16599;47.078;15.536;2024-01-25T14:59:49;9.20;62.40
29687;DHT22;16599;47.078;15.536;2024-01-25T15:02:15;9.40;61.60
29687;DHT22;16599;47.078;15.536;2024-01-25T15:04:42;9.50;63.50
29687;DHT22;16599;47.078;15.536;2024-01-25T15:07:09;9.20;63.50
29687;DHT22;16599;47.078;15.536;2024-01-25T15:09:36;9.20;61.10
29687;DHT22;16599;47.078;15.536;2024-01-25T15:12:04;9.40;59.60
29687;DHT22;16599;47.078;15.536;2024-01-25T15:14:30;9.00;61.50
29687;DHT22;16599;47.078;15.536;2024-01-25T15:16:57;9.30;60.20
29687;DHT22;16599;47.078;15.536;2024-01-25T15:19:24;9.10;61.90
29687;DHT22;16599;47.078;15.536;2024-01-25T15:21:51;8.90;62.50
29687;DHT22;16599;47.078;15.536;2024-01-25T15:24:18;8.70;63.70
29687;DHT22;16599;47.078;15.536;2024-01-25T15:26:44;7.80;68.40
29687;DHT22;16599;47.078;15.536;2024-01-25T15:29:11;7.80;67.60
29687;DHT22;16599;47.078;15.536;2024-01-25T15:31:38;7.40;68.90
29687;DHT22;16599;47.078;15.536;2024-01-25T15:34:05;7.90;66.40
29687;DHT22;16599;47.078;15.536;2024-01-25T15:36:32;7.90;65.60
29687;DHT22;16599;47.078;15.536;2024-01-25T15:38:59;7.70;67.00
29687;DHT22;16599;47.078;15.536;2024-01-25T15:41:26;7.10;70.90
29687;DHT22;16599;47.078;15.536;2024-01-25T15:43:55;7.30;69.10
29687;DHT22;16599;47.078;15.536;2024-01-25T15:46:22;7.50;67.80
29687;DHT22;16599;47.078;15.536;2024-01-25T15:48:49;7.30;70.10
29687;DHT22;16599;47.078;15.536;2024-01-25T15:51:18;6.80;72.20